sensor_id;sensor_type;location;lat;lon;timestamp;P1;durP1;ratioP1;P2;durP2;ratioP2
46845;SDS011;33947;46.804;134.252;2023-11-18T00:00:34;4.68;;;3.95;;
46845;SDS011;33947;46.804;134.252;2023-11-18T00:04:06;8.15;;;4.50;;
46845;SDS011;33947;46.804;134.252;2023-11-18T00:07:50;8.52;;;5.50;;
46845;SDS011;33947;46.804;134.252;2023-11-18T00:10:54;7.15;;;5.22;;
46845;SDS011;33947;46.804;134.252;2023-11-18T00:13:58;9.45;;;4.72;;
46845;SDS011;33947;46.804;134.252;2023-11-18T00:17:03;7.10;;;3.53;;
46845;SDS011;33947;46.804;134.252;2023-11-18T00:20:07;9.07;;;5.07;;
46845;SDS011;33947;46.804;134.252;2023-11-18T00:23:19;7.88;;;5.25;;
46845;SDS011;33947;46.804;134.252;2023-11-18T00:26:24;8.00;;;6.25;;
46845;SDS011;33947;46.804;134.252;2023-11-18T00:29:33;7.75;;;5.22;;
46845;SDS011;33947;46.804;134.252;2023-11-18T00:32:43;8.35;;;5.07;;
46845;SDS011;33947;46.804;134.252;2023-11-18T00:35:48;6.75;;;4.70;;
46845;SDS011;33947;46.804;134.252;2023-11-18T00:38:52;15.13;;;6.95;;
46845;SDS011;33947;46.804;134.252;2023-11-18T00:41:56;22.13;;;10.77;;
46845;SDS011;33947;46.804;134.252;2023-11-18T00:45:01;20.95;;;13.23;;
46845;SDS011;33947;46.804;134.252;2023-11-18T00:48:07;15.90;;;8.27;;
46845;SDS011;33947;46.804;134.252;2023-11-18T00:51:12;30.77;;;15.70;;
46845;SDS011;33947;46.804;134.252;2023-11-18T00:54:16;23.53;;;12.47;;
46845;SDS011;33947;46.804;134.252;2023-11-18T00:57:20;55.47;;;22.52;;
46845;SDS011;33947;46.804;134.252;2023-11-18T01:00:24;150.18;;;51.17;;
46845;SDS011;33947;46.804;134.252;2023-11-18T01:03:29;271.92;;;83.80;;
46845;SDS011;33947;46.804;134.252;2023-11-18T01:06:34;288.70;;;80.45;;
46845;SDS011;33947;46.804;134.252;2023-11-18T01:09:38;413.48;;;117.60;;
46845;SDS011;33947;46.804;134.252;2023-11-18T01:12:49;362.02;;;99.10;;
46845;SDS011;33947;46.804;134.252;2023-11-18T01:16:37;272.88;;;78.13;;
46845;SDS011;33947;46.804;134.252;2023-11-18T01:20:16;286.23;;;89.97;;
46845;SDS011;33947;46.804;134.252;2023-11-18T01:24:36;14.15;;;8.40;;
46845;SDS011;33947;46.804;134.252;2023-11-18T01:28:24;10.05;;;5.18;;
46845;SDS011;33947;46.804;134.252;2023-11-18T01:31:45;13.55;;;7.78;;
46845;SDS011;33947;46.804;134.252;2023-11-18T01:35:08;6.35;;;3.28;;
46845;SDS011;33947;46.804;134.252;2023-11-18T01:38:29;6.68;;;5.22;;
46845;SDS011;33947;46.804;134.252;2023-11-18T01:42:16;9.60;;;7.47;;
46845;SDS011;33947;46.804;134.252;2023-11-18T01:45:48;18.80;;;12.30;;
46845;SDS011;33947;46.804;134.252;2023-11-18T01:49:15;21.95;;;14.55;;
46845;SDS011;33947;46.804;134.252;2023-11-18T01:52:49;18.23;;;12.00;;
46845;SDS011;33947;46.804;134.252;2023-11-18T01:56:10;20.90;;;11.02;;
46845;SDS011;33947;46.804;134.252;2023-11-18T01:59:47;14.15;;;9.23;;
46845;SDS011;33947;46.804;134.252;2023-11-18T02:02:54;9.38;;;6.25;;
46845;SDS011;33947;46.804;134.252;2023-11-18T02:06:12;20.88;;;12.90;;
46845;SDS011;33947;46.804;134.252;2023-11-18T02:09:29;8.90;;;5.82;;
46845;SDS011;33947;46.804;134.252;2023-11-18T02:13:36;12.07;;;7.40;;
46845;SDS011;33947;46.804;134.252;2023-11-18T02:16:09;8.48;;;5.03;;
46845;SDS011;33947;46.804;134.252;2023-11-18T02:19:19;6.77;;;4.63;;
46845;SDS011;33947;46.804;134.252;2023-11-18T02:22:23;12.32;;;7.75;;
46845;SDS011;33947;46.804;134.252;2023-11-18T02:25:31;22.40;;;10.50;;
46845;SDS011;33947;46.804;134.252;2023-11-18T02:28:36;12.95;;;6.97;;
46845;SDS011;33947;46.804;134.252;2023-11-18T02:31:40;7.57;;;4.38;;
46845;SDS011;33947;46.804;134.252;2023-11-18T02:34:50;6.37;;;4.30;;
46845;SDS011;33947;46.804;134.252;2023-11-18T02:37:55;8.32;;;4.68;;
46845;SDS011;33947;46.804;134.252;2023-11-18T02:41:00;5.00;;;3.17;;
46845;SDS011;33947;46.804;134.252;2023-11-18T02:44:06;5.03;;;3.00;;
46845;SDS011;33947;46.804;134.252;2023-11-18T02:47:13;7.45;;;5.32;;
46845;SDS011;33947;46.804;134.252;2023-11-18T02:53:27;4.63;;;3.10;;
46845;SDS011;33947;46.804;134.252;2023-11-18T02:56:31;5.30;;;3.85;;
46845;SDS011;33947;46.804;134.252;2023-11-18T02:59:35;5.53;;;3.33;;
46845;SDS011;33947;46.804;134.252;2023-11-18T03:02:39;4.78;;;3.00;;
46845;SDS011;33947;46.804;134.252;2023-11-18T03:05:43;6.55;;;3.80;;
46845;SDS011;33947;46.804;134.252;2023-11-18T03:08:47;9.32;;;4.47;;
46845;SDS011;33947;46.804;134.252;2023-11-18T03:11:51;5.30;;;3.00;;
46845;SDS011;33947;46.804;134.252;2023-11-18T03:14:55;6.15;;;4.25;;
46845;SDS011;33947;46.804;134.252;2023-11-18T03:18:27;5.07;;;3.97;;
46845;SDS011;33947;46.804;134.252;2023-11-18T03:22:12;4.07;;;2.45;;
46845;SDS011;33947;46.804;134.252;2023-11-18T03:25:51;6.63;;;3.78;;
46845;SDS011;33947;46.804;134.252;2023-11-18T03:29:13;11.00;;;3.25;;
46845;SDS011;33947;46.804;134.252;2023-11-18T03:33:01;3.92;;;2.97;;
46845;SDS011;33947;46.804;134.252;2023-11-18T03:36:19;5.28;;;3.40;;
46845;SDS011;33947;46.804;134.252;2023-11-18T03:39:51;5.35;;;3.45;;
46845;SDS011;33947;46.804;134.252;2023-11-18T03:43:06;3.95;;;2.67;;
46845;SDS011;33947;46.804;134.252;2023-11-18T03:46:50;4.53;;;3.15;;
46845;SDS011;33947;46.804;134.252;2023-11-18T03:50:00;4.53;;;3.28;;
46845;SDS011;33947;46.804;134.252;2023-11-18T03:53:41;4.82;;;3.13;;
46845;SDS011;33947;46.804;134.252;2023-11-18T03:57:22;3.35;;;2.83;;
46845;SDS011;33947;46.804;134.252;2023-11-18T04:01:02;2.83;;;2.30;;
46845;SDS011;33947;46.804;134.252;2023-11-18T04:04:46;4.40;;;3.60;;
46845;SDS011;33947;46.804;134.252;2023-11-18T04:08:22;5.10;;;3.97;;
46845;SDS011;33947;46.804;134.252;2023-11-18T04:12:11;6.03;;;5.10;;
46845;SDS011;33947;46.804;134.252;2023-11-18T04:15:21;4.90;;;3.53;;
46845;SDS011;33947;46.804;134.252;2023-11-18T04:19:00;5.13;;;3.83;;
46845;SDS011;33947;46.804;134.252;2023-11-18T04:22:04;6.78;;;4.68;;
46845;SDS011;33947;46.804;134.252;2023-11-18T04:25:09;7.55;;;3.80;;
46845;SDS011;33947;46.804;134.252;2023-11-18T04:28:13;5.38;;;3.30;;
46845;SDS011;33947;46.804;134.252;2023-11-18T04:31:17;4.93;;;3.30;;
46845;SDS011;33947;46.804;134.252;2023-11-18T04:34:21;10.25;;;6.05;;
46845;SDS011;33947;46.804;134.252;2023-11-18T04:37:24;5.43;;;4.28;;
46845;SDS011;33947;46.804;134.252;2023-11-18T04:40:31;5.90;;;4.22;;
46845;SDS011;33947;46.804;134.252;2023-11-18T04:43:36;6.55;;;4.43;;
46845;SDS011;33947;46.804;134.252;2023-11-18T04:46:47;9.43;;;5.53;;
46845;SDS011;33947;46.804;134.252;2023-11-18T04:49:53;11.90;;;5.13;;
46845;SDS011;33947;46.804;134.252;2023-11-18T04:52:58;6.13;;;4.55;;
46845;SDS011;33947;46.804;134.252;2023-11-18T04:56:10;8.65;;;4.80;;
46845;SDS011;33947;46.804;134.252;2023-11-18T04:59:14;8.15;;;3.97;;
46845;SDS011;33947;46.804;134.252;2023-11-18T05:02:23;5.63;;;3.75;;
46845;SDS011;33947;46.804;134.252;2023-11-18T05:05:34;6.75;;;4.18;;
46845;SDS011;33947;46.804;134.252;2023-11-18T05:08:43;9.60;;;5.47;;
46845;SDS011;33947;46.804;134.252;2023-11-18T05:11:57;10.35;;;6.72;;
46845;SDS011;33947;46.804;134.252;2023-11-18T05:15:05;7.25;;;4.68;;
46845;SDS011;33947;46.804;134.252;2023-11-18T05:18:13;52.35;;;28.83;;
46845;SDS011;33947;46.804;134.252;2023-11-18T05:21:18;14.80;;;7.57;;
46845;SDS011;33947;46.804;134.252;2023-11-18T05:24:23;10.90;;;6.97;;
46845;SDS011;33947;46.804;134.252;2023-11-18T05:27:30;13.15;;;6.78;;
46845;SDS011;33947;46.804;134.252;2023-11-18T05:30:54;22.60;;;12.57;;
46845;SDS011;33947;46.804;134.252;2023-11-18T05:34:14;18.45;;;9.40;;
46845;SDS011;33947;46.804;134.252;2023-11-18T05:37:18;23.17;;;11.32;;
46845;SDS011;33947;46.804;134.252;2023-11-18T05:40:22;12.15;;;7.65;;
46845;SDS011;33947;46.804;134.252;2023-11-18T05:43:30;11.65;;;5.40;;
46845;SDS011;33947;46.804;134.252;2023-11-18T05:47:12;20.52;;;11.57;;
46845;SDS011;33947;46.804;134.252;2023-11-18T05:54:26;9.95;;;6.43;;
46845;SDS011;33947;46.804;134.252;2023-11-18T05:57:35;10.38;;;6.55;;
46845;SDS011;33947;46.804;134.252;2023-11-18T06:00:54;39.38;;;23.90;;
46845;SDS011;33947;46.804;134.252;2023-11-18T06:04:15;7.88;;;4.72;;
46845;SDS011;33947;46.804;134.252;2023-11-18T06:07:37;19.85;;;12.90;;
46845;SDS011;33947;46.804;134.252;2023-11-18T06:10:58;61.22;;;32.22;;
46845;SDS011;33947;46.804;134.252;2023-11-18T06:14:04;17.33;;;9.75;;
46845;SDS011;33947;46.804;134.252;2023-11-18T06:17:26;35.47;;;21.98;;
46845;SDS011;33947;46.804;134.252;2023-11-18T06:21:03;23.73;;;15.48;;
46845;SDS011;33947;46.804;134.252;2023-11-18T06:24:24;30.60;;;20.17;;
46845;SDS011;33947;46.804;134.252;2023-11-18T06:28:06;28.08;;;19.63;;
46845;SDS011;33947;46.804;134.252;2023-11-18T06:31:44;16.05;;;11.55;;
46845;SDS011;33947;46.804;134.252;2023-11-18T06:39:01;27.55;;;21.38;;
46845;SDS011;33947;46.804;134.252;2023-11-18T06:42:46;15.90;;;10.93;;
46845;SDS011;33947;46.804;134.252;2023-11-18T06:46:27;11.90;;;8.48;;
46845;SDS011;33947;46.804;134.252;2023-11-18T06:49:56;14.93;;;9.05;;
46845;SDS011;33947;46.804;134.252;2023-11-18T06:57:15;44.70;;;24.40;;
46845;SDS011;33947;46.804;134.252;2023-11-18T07:00:41;16.13;;;10.23;;
46845;SDS011;33947;46.804;134.252;2023-11-18T07:04:27;9.88;;;7.00;;
46845;SDS011;33947;46.804;134.252;2023-11-18T07:08:04;14.43;;;8.88;;
46845;SDS011;33947;46.804;134.252;2023-11-18T07:12:19;16.23;;;9.98;;
46845;SDS011;33947;46.804;134.252;2023-11-18T07:15:35;15.55;;;9.60;;
46845;SDS011;33947;46.804;134.252;2023-11-18T07:18:43;13.18;;;8.07;;
46845;SDS011;33947;46.804;134.252;2023-11-18T07:22:00;18.00;;;11.55;;
46845;SDS011;33947;46.804;134.252;2023-11-18T07:25:52;14.73;;;8.35;;
46845;SDS011;33947;46.804;134.252;2023-11-18T07:29:50;15.88;;;8.80;;
46845;SDS011;33947;46.804;134.252;2023-11-18T07:38:16;12.68;;;7.97;;
46845;SDS011;33947;46.804;134.252;2023-11-18T07:42:24;18.60;;;12.15;;
46845;SDS011;33947;46.804;134.252;2023-11-18T07:45:59;14.00;;;9.15;;
46845;SDS011;33947;46.804;134.252;2023-11-18T07:49:37;17.20;;;9.18;;
46845;SDS011;33947;46.804;134.252;2023-11-18T07:52:47;19.25;;;13.57;;
46845;SDS011;33947;46.804;134.252;2023-11-18T07:56:23;9.77;;;6.05;;
46845;SDS011;33947;46.804;134.252;2023-11-18T07:59:49;15.15;;;11.70;;
46845;SDS011;33947;46.804;134.252;2023-11-18T08:03:20;11.63;;;6.50;;
46845;SDS011;33947;46.804;134.252;2023-11-18T08:06:32;12.23;;;8.25;;
46845;SDS011;33947;46.804;134.252;2023-11-18T08:10:06;19.75;;;13.57;;
46845;SDS011;33947;46.804;134.252;2023-11-18T08:13:16;10.63;;;7.50;;
46845;SDS011;33947;46.804;134.252;2023-11-18T08:16:30;15.05;;;9.32;;
46845;SDS011;33947;46.804;134.252;2023-11-18T08:19:36;12.15;;;7.53;;
46845;SDS011;33947;46.804;134.252;2023-11-18T08:22:44;13.63;;;7.32;;
46845;SDS011;33947;46.804;134.252;2023-11-18T08:25:59;13.00;;;7.00;;
46845;SDS011;33947;46.804;134.252;2023-11-18T08:29:09;16.65;;;7.63;;
46845;SDS011;33947;46.804;134.252;2023-11-18T08:32:16;14.90;;;8.77;;
46845;SDS011;33947;46.804;134.252;2023-11-18T08:35:21;13.43;;;7.80;;
46845;SDS011;33947;46.804;134.252;2023-11-18T08:38:26;13.67;;;8.03;;
46845;SDS011;33947;46.804;134.252;2023-11-18T08:41:31;16.05;;;11.50;;
46845;SDS011;33947;46.804;134.252;2023-11-18T08:44:35;17.05;;;9.95;;
46845;SDS011;33947;46.804;134.252;2023-11-18T08:47:42;13.45;;;8.05;;
46845;SDS011;33947;46.804;134.252;2023-11-18T08:50:46;9.57;;;5.35;;
46845;SDS011;33947;46.804;134.252;2023-11-18T08:53:52;11.27;;;6.65;;
46845;SDS011;33947;46.804;134.252;2023-11-18T08:56:58;8.73;;;6.18;;
46845;SDS011;33947;46.804;134.252;2023-11-18T09:00:02;9.88;;;5.38;;
46845;SDS011;33947;46.804;134.252;2023-11-18T09:03:16;14.20;;;6.80;;
46845;SDS011;33947;46.804;134.252;2023-11-18T09:06:40;12.75;;;6.85;;
46845;SDS011;33947;46.804;134.252;2023-11-18T09:09:45;12.80;;;6.00;;
46845;SDS011;33947;46.804;134.252;2023-11-18T09:12:56;10.55;;;6.63;;
46845;SDS011;33947;46.804;134.252;2023-11-18T09:16:10;11.45;;;6.70;;
46845;SDS011;33947;46.804;134.252;2023-11-18T09:19:18;9.93;;;6.00;;
46845;SDS011;33947;46.804;134.252;2023-11-18T09:22:32;10.63;;;6.43;;
46845;SDS011;33947;46.804;134.252;2023-11-18T09:26:06;8.68;;;5.60;;
46845;SDS011;33947;46.804;134.252;2023-11-18T09:29:27;8.10;;;4.10;;
46845;SDS011;33947;46.804;134.252;2023-11-18T09:32:44;9.57;;;4.15;;
46845;SDS011;33947;46.804;134.252;2023-11-18T09:36:02;7.03;;;3.90;;
46845;SDS011;33947;46.804;134.252;2023-11-18T09:39:12;7.13;;;3.85;;
46845;SDS011;33947;46.804;134.252;2023-11-18T09:42:48;9.32;;;4.95;;
46845;SDS011;33947;46.804;134.252;2023-11-18T09:46:05;9.55;;;5.38;;
46845;SDS011;33947;46.804;134.252;2023-11-18T09:49:27;5.68;;;4.10;;
46845;SDS011;33947;46.804;134.252;2023-11-18T09:52:49;5.95;;;4.32;;
46845;SDS011;33947;46.804;134.252;2023-11-18T09:55:59;8.80;;;4.53;;
46845;SDS011;33947;46.804;134.252;2023-11-18T10:02:23;9.13;;;5.38;;
46845;SDS011;33947;46.804;134.252;2023-11-18T10:05:28;12.30;;;6.25;;
46845;SDS011;33947;46.804;134.252;2023-11-18T10:08:35;23.58;;;11.98;;
46845;SDS011;33947;46.804;134.252;2023-11-18T10:11:47;53.25;;;23.85;;
46845;SDS011;33947;46.804;134.252;2023-11-18T10:14:52;15.43;;;9.30;;
46845;SDS011;33947;46.804;134.252;2023-11-18T10:17:57;12.38;;;6.53;;
46845;SDS011;33947;46.804;134.252;2023-11-18T10:21:34;8.88;;;5.93;;
46845;SDS011;33947;46.804;134.252;2023-11-18T10:25:23;8.10;;;4.38;;
46845;SDS011;33947;46.804;134.252;2023-11-18T10:28:38;22.40;;;17.13;;
46845;SDS011;33947;46.804;134.252;2023-11-18T10:32:09;8.02;;;5.10;;
46845;SDS011;33947;46.804;134.252;2023-11-18T10:36:22;12.55;;;7.00;;
46845;SDS011;33947;46.804;134.252;2023-11-18T10:39:28;14.50;;;8.82;;
46845;SDS011;33947;46.804;134.252;2023-11-18T10:42:39;12.30;;;7.53;;
46845;SDS011;33947;46.804;134.252;2023-11-18T10:45:43;10.68;;;6.65;;
46845;SDS011;33947;46.804;134.252;2023-11-18T10:48:50;7.28;;;4.97;;
46845;SDS011;33947;46.804;134.252;2023-11-18T10:51:55;9.20;;;6.38;;
46845;SDS011;33947;46.804;134.252;2023-11-18T10:55:02;7.28;;;4.57;;
46845;SDS011;33947;46.804;134.252;2023-11-18T10:58:15;9.38;;;5.28;;
46845;SDS011;33947;46.804;134.252;2023-11-18T11:01:31;11.45;;;6.25;;
46845;SDS011;33947;46.804;134.252;2023-11-18T11:04:42;13.25;;;6.57;;
46845;SDS011;33947;46.804;134.252;2023-11-18T11:07:50;13.30;;;7.25;;
46845;SDS011;33947;46.804;134.252;2023-11-18T11:10:57;13.80;;;8.48;;
46845;SDS011;33947;46.804;134.252;2023-11-18T11:14:04;12.38;;;9.43;;
46845;SDS011;33947;46.804;134.252;2023-11-18T11:17:12;15.00;;;7.95;;
46845;SDS011;33947;46.804;134.252;2023-11-18T11:20:25;13.45;;;5.97;;
46845;SDS011;33947;46.804;134.252;2023-11-18T11:27:17;36.00;;;17.95;;
46845;SDS011;33947;46.804;134.252;2023-11-18T11:31:00;38.58;;;23.27;;
46845;SDS011;33947;46.804;134.252;2023-11-18T11:34:17;26.33;;;15.93;;
46845;SDS011;33947;46.804;134.252;2023-11-18T11:37:24;41.30;;;21.67;;
46845;SDS011;33947;46.804;134.252;2023-11-18T11:40:32;20.13;;;13.45;;
46845;SDS011;33947;46.804;134.252;2023-11-18T11:43:38;16.40;;;9.80;;
46845;SDS011;33947;46.804;134.252;2023-11-18T11:46:46;30.50;;;10.23;;
46845;SDS011;33947;46.804;134.252;2023-11-18T11:50:01;18.27;;;8.15;;
46845;SDS011;33947;46.804;134.252;2023-11-18T11:53:24;12.98;;;6.55;;
46845;SDS011;33947;46.804;134.252;2023-11-18T12:00:04;9.38;;;6.00;;
46845;SDS011;33947;46.804;134.252;2023-11-18T12:03:19;15.35;;;6.65;;
46845;SDS011;33947;46.804;134.252;2023-11-18T12:06:29;12.73;;;6.18;;
46845;SDS011;33947;46.804;134.252;2023-11-18T12:09:33;10.03;;;5.83;;
46845;SDS011;33947;46.804;134.252;2023-11-18T12:12:41;13.00;;;6.30;;
46845;SDS011;33947;46.804;134.252;2023-11-18T12:15:52;10.90;;;6.60;;
46845;SDS011;33947;46.804;134.252;2023-11-18T12:22:30;20.98;;;8.50;;
46845;SDS011;33947;46.804;134.252;2023-11-18T12:25:54;14.30;;;6.30;;
46845;SDS011;33947;46.804;134.252;2023-11-18T12:32:07;12.95;;;6.00;;
46845;SDS011;33947;46.804;134.252;2023-11-18T12:35:16;10.82;;;5.72;;
46845;SDS011;33947;46.804;134.252;2023-11-18T12:45:44;9.02;;;5.25;;
46845;SDS011;33947;46.804;134.252;2023-11-18T12:49:24;10.55;;;5.28;;
46845;SDS011;33947;46.804;134.252;2023-11-18T12:52:33;9.65;;;6.10;;
46845;SDS011;33947;46.804;134.252;2023-11-18T12:55:41;10.10;;;5.35;;
46845;SDS011;33947;46.804;134.252;2023-11-18T12:58:53;15.48;;;7.30;;
46845;SDS011;33947;46.804;134.252;2023-11-18T13:02:17;9.98;;;5.85;;
46845;SDS011;33947;46.804;134.252;2023-11-18T13:05:48;9.85;;;5.80;;
46845;SDS011;33947;46.804;134.252;2023-11-18T13:12:51;9.18;;;4.90;;
46845;SDS011;33947;46.804;134.252;2023-11-18T13:19:28;10.05;;;4.70;;
46845;SDS011;33947;46.804;134.252;2023-11-18T13:22:39;9.43;;;5.32;;
46845;SDS011;33947;46.804;134.252;2023-11-18T13:25:58;9.13;;;5.10;;
46845;SDS011;33947;46.804;134.252;2023-11-18T13:29:14;8.00;;;4.25;;
46845;SDS011;33947;46.804;134.252;2023-11-18T13:32:36;22.13;;;7.20;;
46845;SDS011;33947;46.804;134.252;2023-11-18T13:35:56;13.57;;;5.68;;
46845;SDS011;33947;46.804;134.252;2023-11-18T13:39:31;36.28;;;22.33;;
46845;SDS011;33947;46.804;134.252;2023-11-18T13:42:41;32.58;;;12.32;;
46845;SDS011;33947;46.804;134.252;2023-11-18T13:45:59;12.38;;;7.47;;
46845;SDS011;33947;46.804;134.252;2023-11-18T13:49:12;11.25;;;6.13;;
46845;SDS011;33947;46.804;134.252;2023-11-18T13:52:23;11.63;;;6.05;;
46845;SDS011;33947;46.804;134.252;2023-11-18T13:55:46;7.35;;;4.50;;
46845;SDS011;33947;46.804;134.252;2023-11-18T13:58:58;5.80;;;2.80;;
46845;SDS011;33947;46.804;134.252;2023-11-18T14:02:21;4.80;;;2.63;;
46845;SDS011;33947;46.804;134.252;2023-11-18T14:05:28;5.47;;;2.60;;
46845;SDS011;33947;46.804;134.252;2023-11-18T14:08:32;4.85;;;2.55;;
46845;SDS011;33947;46.804;134.252;2023-11-18T14:11:56;3.65;;;2.13;;
46845;SDS011;33947;46.804;134.252;2023-11-18T14:15:09;5.28;;;2.70;;
46845;SDS011;33947;46.804;134.252;2023-11-18T14:18:55;4.68;;;2.80;;
46845;SDS011;33947;46.804;134.252;2023-11-18T14:22:13;4.00;;;2.42;;
46845;SDS011;33947;46.804;134.252;2023-11-18T14:25:41;3.88;;;2.35;;
46845;SDS011;33947;46.804;134.252;2023-11-18T14:29:04;4.20;;;2.53;;
46845;SDS011;33947;46.804;134.252;2023-11-18T14:32:14;3.78;;;2.20;;
46845;SDS011;33947;46.804;134.252;2023-11-18T14:35:25;8.80;;;3.38;;
46845;SDS011;33947;46.804;134.252;2023-11-18T14:38:40;10.60;;;5.32;;
46845;SDS011;33947;46.804;134.252;2023-11-18T14:41:58;8.52;;;4.20;;
46845;SDS011;33947;46.804;134.252;2023-11-18T14:45:09;9.10;;;5.30;;
46845;SDS011;33947;46.804;134.252;2023-11-18T14:48:34;12.63;;;3.47;;
46845;SDS011;33947;46.804;134.252;2023-11-18T14:52:04;5.57;;;2.90;;
46845;SDS011;33947;46.804;134.252;2023-11-18T14:55:14;4.05;;;2.20;;
46845;SDS011;33947;46.804;134.252;2023-11-18T14:58:25;6.55;;;3.10;;
46845;SDS011;33947;46.804;134.252;2023-11-18T15:01:47;4.45;;;2.85;;
46845;SDS011;33947;46.804;134.252;2023-11-18T15:05:18;3.20;;;2.60;;
46845;SDS011;33947;46.804;134.252;2023-11-18T15:08:28;4.45;;;2.80;;
46845;SDS011;33947;46.804;134.252;2023-11-18T15:11:39;3.42;;;2.42;;
46845;SDS011;33947;46.804;134.252;2023-11-18T15:14:49;4.82;;;2.78;;
46845;SDS011;33947;46.804;134.252;2023-11-18T15:18:03;4.50;;;2.63;;
46845;SDS011;33947;46.804;134.252;2023-11-18T15:21:39;4.32;;;2.50;;
46845;SDS011;33947;46.804;134.252;2023-11-18T15:25:06;5.45;;;3.13;;
46845;SDS011;33947;46.804;134.252;2023-11-18T15:28:25;12.05;;;3.75;;
46845;SDS011;33947;46.804;134.252;2023-11-18T15:31:36;19.33;;;5.68;;
46845;SDS011;33947;46.804;134.252;2023-11-18T15:34:57;7.57;;;3.05;;
46845;SDS011;33947;46.804;134.252;2023-11-18T15:38:13;3.67;;;2.55;;
46845;SDS011;33947;46.804;134.252;2023-11-18T15:41:25;3.80;;;2.35;;
46845;SDS011;33947;46.804;134.252;2023-11-18T15:44:38;3.67;;;2.60;;
46845;SDS011;33947;46.804;134.252;2023-11-18T15:48:20;158.25;;;35.58;;
46845;SDS011;33947;46.804;134.252;2023-11-18T15:51:30;7.78;;;4.28;;
46845;SDS011;33947;46.804;134.252;2023-11-18T15:54:47;19.05;;;7.85;;
46845;SDS011;33947;46.804;134.252;2023-11-18T15:57:55;13.32;;;6.57;;
46845;SDS011;33947;46.804;134.252;2023-11-18T16:01:25;24.42;;;12.50;;
46845;SDS011;33947;46.804;134.252;2023-11-18T16:04:46;22.75;;;11.05;;
46845;SDS011;33947;46.804;134.252;2023-11-18T16:08:00;36.58;;;10.82;;
46845;SDS011;33947;46.804;134.252;2023-11-18T16:11:11;16.08;;;7.38;;
46845;SDS011;33947;46.804;134.252;2023-11-18T16:14:33;16.33;;;8.57;;
46845;SDS011;33947;46.804;134.252;2023-11-18T16:18:08;7.93;;;4.50;;
46845;SDS011;33947;46.804;134.252;2023-11-18T16:21:37;9.68;;;4.95;;
46845;SDS011;33947;46.804;134.252;2023-11-18T16:25:18;8.27;;;4.57;;
46845;SDS011;33947;46.804;134.252;2023-11-18T16:28:28;9.93;;;5.22;;
46845;SDS011;33947;46.804;134.252;2023-11-18T16:32:03;6.50;;;4.22;;
46845;SDS011;33947;46.804;134.252;2023-11-18T16:35:24;9.02;;;4.63;;
46845;SDS011;33947;46.804;134.252;2023-11-18T16:39:07;9.15;;;5.63;;
46845;SDS011;33947;46.804;134.252;2023-11-18T16:42:18;44.45;;;12.38;;
46845;SDS011;33947;46.804;134.252;2023-11-18T16:45:28;21.25;;;8.00;;
46845;SDS011;33947;46.804;134.252;2023-11-18T16:48:56;11.75;;;5.60;;
46845;SDS011;33947;46.804;134.252;2023-11-18T16:52:18;20.27;;;7.07;;
46845;SDS011;33947;46.804;134.252;2023-11-18T16:55:43;6.95;;;4.10;;
46845;SDS011;33947;46.804;134.252;2023-11-18T16:59:11;9.73;;;4.93;;
46845;SDS011;33947;46.804;134.252;2023-11-18T17:02:17;9.13;;;4.90;;
46845;SDS011;33947;46.804;134.252;2023-11-18T17:05:42;13.25;;;7.15;;
46845;SDS011;33947;46.804;134.252;2023-11-18T17:08:47;15.23;;;7.63;;
46845;SDS011;33947;46.804;134.252;2023-11-18T17:12:00;33.95;;;13.85;;
46845;SDS011;33947;46.804;134.252;2023-11-18T17:15:26;8.90;;;4.38;;
46845;SDS011;33947;46.804;134.252;2023-11-18T17:18:39;9.88;;;4.82;;
46845;SDS011;33947;46.804;134.252;2023-11-18T17:22:24;6.47;;;4.05;;
46845;SDS011;33947;46.804;134.252;2023-11-18T17:25:29;9.45;;;4.13;;
46845;SDS011;33947;46.804;134.252;2023-11-18T17:28:40;7.13;;;4.18;;
46845;SDS011;33947;46.804;134.252;2023-11-18T17:31:49;7.15;;;4.85;;
46845;SDS011;33947;46.804;134.252;2023-11-18T17:35:08;20.02;;;6.88;;
46845;SDS011;33947;46.804;134.252;2023-11-18T17:38:28;9.52;;;4.82;;
46845;SDS011;33947;46.804;134.252;2023-11-18T17:41:43;17.67;;;6.32;;
46845;SDS011;33947;46.804;134.252;2023-11-18T17:44:54;15.45;;;5.93;;
46845;SDS011;33947;46.804;134.252;2023-11-18T17:48:06;10.45;;;5.60;;
46845;SDS011;33947;46.804;134.252;2023-11-18T17:51:19;11.63;;;5.22;;
46845;SDS011;33947;46.804;134.252;2023-11-18T17:54:41;20.52;;;8.95;;
46845;SDS011;33947;46.804;134.252;2023-11-18T17:57:51;13.30;;;6.43;;
46845;SDS011;33947;46.804;134.252;2023-11-18T18:01:16;9.02;;;4.30;;
46845;SDS011;33947;46.804;134.252;2023-11-18T18:04:40;24.17;;;8.15;;
46845;SDS011;33947;46.804;134.252;2023-11-18T18:07:52;8.02;;;4.70;;
46845;SDS011;33947;46.804;134.252;2023-11-18T18:11:08;10.23;;;4.85;;
46845;SDS011;33947;46.804;134.252;2023-11-18T18:14:24;10.98;;;4.88;;
46845;SDS011;33947;46.804;134.252;2023-11-18T18:17:50;7.70;;;4.45;;
46845;SDS011;33947;46.804;134.252;2023-11-18T18:21:17;52.63;;;17.85;;
46845;SDS011;33947;46.804;134.252;2023-11-18T18:24:27;10.52;;;4.78;;
46845;SDS011;33947;46.804;134.252;2023-11-18T18:28:07;8.35;;;4.90;;
46845;SDS011;33947;46.804;134.252;2023-11-18T18:31:32;10.65;;;5.05;;
46845;SDS011;33947;46.804;134.252;2023-11-18T18:34:49;11.40;;;5.38;;
46845;SDS011;33947;46.804;134.252;2023-11-18T18:38:20;25.92;;;11.48;;
46845;SDS011;33947;46.804;134.252;2023-11-18T18:42:08;16.90;;;8.95;;
46845;SDS011;33947;46.804;134.252;2023-11-18T18:45:22;23.10;;;11.63;;
46845;SDS011;33947;46.804;134.252;2023-11-18T18:48:29;26.80;;;14.73;;
46845;SDS011;33947;46.804;134.252;2023-11-18T18:52:02;13.32;;;7.18;;
46845;SDS011;33947;46.804;134.252;2023-11-18T18:55:49;10.27;;;5.10;;
46845;SDS011;33947;46.804;134.252;2023-11-18T18:58:59;7.75;;;4.57;;
46845;SDS011;33947;46.804;134.252;2023-11-18T19:02:35;8.13;;;4.50;;
46845;SDS011;33947;46.804;134.252;2023-11-18T19:05:40;10.20;;;5.18;;
46845;SDS011;33947;46.804;134.252;2023-11-18T19:08:44;8.90;;;4.55;;
46845;SDS011;33947;46.804;134.252;2023-11-18T19:11:49;16.33;;;10.38;;
46845;SDS011;33947;46.804;134.252;2023-11-18T19:14:53;9.05;;;5.10;;
46845;SDS011;33947;46.804;134.252;2023-11-18T19:17:57;9.00;;;5.07;;
46845;SDS011;33947;46.804;134.252;2023-11-18T19:21:03;12.65;;;7.13;;
46845;SDS011;33947;46.804;134.252;2023-11-18T19:24:09;7.57;;;4.90;;
46845;SDS011;33947;46.804;134.252;2023-11-18T19:27:26;11.57;;;5.80;;
46845;SDS011;33947;46.804;134.252;2023-11-18T19:30:30;11.52;;;6.00;;
46845;SDS011;33947;46.804;134.252;2023-11-18T19:33:34;10.52;;;5.57;;
46845;SDS011;33947;46.804;134.252;2023-11-18T19:36:42;17.20;;;8.65;;
46845;SDS011;33947;46.804;134.252;2023-11-18T19:39:51;14.63;;;9.18;;
46845;SDS011;33947;46.804;134.252;2023-11-18T19:43:03;13.35;;;7.32;;
46845;SDS011;33947;46.804;134.252;2023-11-18T19:46:09;28.90;;;17.15;;
46845;SDS011;33947;46.804;134.252;2023-11-18T19:49:21;12.95;;;7.45;;
46845;SDS011;33947;46.804;134.252;2023-11-18T19:52:29;15.77;;;7.82;;